EW9629 Weather Reports


Display with metric or nautical units.
time (UTC)temp
F
wind
direction
speed
MPH
gust
MPH
rain 1hr
in
rain 24hr
in
rain mn
in
humidity
%
barometer
mb
20210920023552 54 0 0.0 0.0 0.00 0.00 0.00 95 1023.6
20210920023107 54 69 0.0 0.0 0.00 0.00 0.00 95 1023.2
20210920023105 54 0 0.0 0.0 0.00 0.00 0.00 95 1023.6
20210920022542 54 0 0.0 0.0 0.00 0.00 0.00 94 1023.6
20210920022046 54 0 0.0 0.0 0.00 0.00 0.00 94 1023.6
20210920021638 54 0 0.0 0.0 0.00 0.00 0.00 94 1023.6
20210920021630 54 69 0.0 0.0 0.00 0.00 0.00 94 1023.1
20210920021056 54 0 0.0 0.0 0.00 0.00 0.00 94 1023.5
20210920020556 54 0 0.0 0.0 0.00 0.00 0.00 94 1023.4
20210920020126 54 360 0.0 0.0 0.00 0.00 0.00 94 1023.0
20210920020124 54 0 0.0 0.0 0.00 0.00 0.00 94 1023.4
20210920015550 54 0 0.0 0.0 0.00 0.00 0.00 94 1023.4
20210920015048 54 0 0.0 0.0 0.00 0.00 0.00 94 1023.3
20210920014633 54 69 0.0 0.0 0.00 0.00 0.00 94 1022.9
20210920014603 54 0 0.0 0.0 0.00 0.00 0.00 93 1023.3
20210920014047 54 0 0.0 0.0 0.00 0.00 0.00 93 1023.3
20210920013600 55 0 0.0 0.0 0.00 0.00 0.00 93 1023.2
20210920013245 55 0 0.0 0.0 0.00 0.00 0.00 93 1023.2
20210920013110 55 69 0.0 0.0 0.00 0.00 0.00 93 1022.8
20210920012557 55 0 0.0 0.0 0.00 0.00 0.00 93 1023.2
20210920012046 55 0 0.0 0.0 0.00 0.00 0.00 92 1023.0
20210920011610 55 0 0.0 0.0 0.00 0.00 0.00 92 1023.1
20210920011603 55 69 0.0 0.0 0.00 0.00 0.00 93 1022.8
20210920011044 55 0 0.0 0.0 0.00 0.00 0.00 92 1023.1
20210920010606 55 0 0.0 0.0 0.00 0.00 0.00 92 1023.0
20210920010205 56 0 0.0 0.0 0.00 0.00 0.00 91 1023.0
20210920010114 56 63 0.0 0.0 0.00 0.00 0.00 92 1022.6
20210920005547 56 0 0.0 0.0 0.00 0.00 0.00 91 1023.0
20210920005048 56 0 0.0 0.0 0.00 0.00 0.00 91 1022.9
20210920004707 56 0 0.0 0.0 0.00 0.00 0.00 91 1022.9
20210920004552 56 360 0.0 0.0 0.00 0.00 0.00 91 1022.5
20210920004046 56 0 0.0 0.0 0.00 0.00 0.00 90 1022.9
20210920003546 56 0 0.0 0.0 0.00 0.00 0.00 90 1023.0
20210920003102 56 0 0.0 0.0 0.00 0.00 0.00 90 1022.9
20210920003043 57 69 0.0 0.0 0.00 0.00 0.00 90 1022.4
20210920002621 57 0 0.0 0.0 0.00 0.00 0.00 90 1022.8
20210920002048 57 0 0.0 0.0 0.00 0.00 0.00 90 1022.6
20210920001648 57 0 0.0 0.0 0.00 0.00 0.00 90 1022.5
20210920001542 57 66 0.0 0.0 0.00 0.00 0.00 90 1022.0
20210920001047 57 0 0.0 0.0 0.00 0.00 0.00 90 1022.5
20210920000550 57 0 0.0 0.0 0.00 0.00 0.00 90 1022.3
20210920000138 57 0 0.0 0.0 0.00 0.00 0.00 89 1022.2
20210920000021 58 65 0.0 0.0 0.00 0.00 0.00 89 1021.7
20210919235551 58 0 0.0 0.0 0.00 0.00 0.00 89 1022.3
20210919235046 58 0 0.0 0.0 0.00 0.00 0.00 87 1022.2
20210919234750 58 0 0.0 0.0 0.00 0.00 0.00 87 1022.3
20210919234529 58 65 0.0 0.0 0.00 0.00 0.00 87 1021.6
20210919234046 59 0 0.0 0.0 0.00 0.00 0.00 86 1022.3
20210919233547 59 0 0.0 0.0 0.00 0.00 0.00 85 1022.3
20210919233114 59 0 0.0 1.0 0.00 0.00 0.00 84 1022.2
20210919233019 59 360 0.0 1.0 0.00 0.00 0.00 85 1021.5
20210919232548 60 0 0.0 1.0 0.00 0.00 0.00 83 1022.1
20210919232051 60 0 0.0 1.0 0.00 0.00 0.00 83 1022.0
20210919231639 60 0 0.0 1.0 0.00 0.00 0.00 83 1021.9
20210919231508 60 360 0.0 1.0 0.00 0.00 0.00 83 1021.2
20210919231054 61 0 0.0 0.0 0.00 0.00 0.00 82 1021.8
20210919230605 61 0 0.0 0.0 0.00 0.00 0.00 82 1021.7
20210919230113 61 0 0.0 0.0 0.00 0.00 0.00 80 1021.6
20210919230006 61 360 0.0 0.0 0.00 0.00 0.00 81 1021.0
20210919225551 62 0 0.0 0.0 0.00 0.00 0.00 80 1021.6
20210919225050 62 0 0.0 0.0 0.00 0.00 0.00 79 1021.5
20210919224609 62 0 0.0 0.0 0.00 0.00 0.00 79 1021.5
20210919224525 62 69 0.0 0.0 0.00 0.00 0.00 79 1020.8
20210919224053 63 0 0.0 0.0 0.00 0.00 0.00 79 1021.4
20210919223603 63 0 0.0 0.0 0.00 0.00 0.00 78 1021.4
20210919223159 63 0 0.0 0.0 0.00 0.00 0.00 77 1021.2
20210919223146 63 360 0.0 0.0 0.00 0.00 0.00 78 1020.6
20210919222548 64 0 0.0 1.0 0.00 0.00 0.00 76 1021.2
20210919222044 64 0 0.0 1.0 0.00 0.00 0.00 76 1021.1
20210919221802 64 24 0.0 1.0 0.00 0.00 0.00 71 1020.4
20210919221655 64 0 0.0 1.0 0.00 0.00 0.00 71 1021.1
20210919221050 65 0 0.0 1.0 0.00 0.00 0.00 73 1021.0
20210919220545 65 0 0.0 1.0 0.00 0.00 0.00 73 1021.0
20210919220324 65 40 0.0 1.0 0.00 0.00 0.00 72 1020.3
20210919220102 65 0 0.0 1.0 0.00 0.00 0.00 72 1021.0
20210919215542 66 0 0.0 1.0 0.00 0.00 0.00 67 1020.8
20210919215042 66 0 0.0 1.0 0.00 0.00 0.00 71 1020.7
20210919214643 67 345 0.0 1.0 0.00 0.00 0.00 71 1020.1
20210919214632 67 0 0.0 1.0 0.00 0.00 0.00 70 1020.7
20210919214111 67 0 0.0 1.0 0.00 0.00 0.00 66 1020.5
20210919213542 67 0 0.0 2.0 0.00 0.00 0.00 60 1020.5
20210919213119 67 90 0.0 2.0 0.00 0.00 0.00 59 1020.0
20210919213107 67 0 0.0 2.0 0.00 0.00 0.00 61 1020.6
20210919212544 68 0 0.0 2.0 0.00 0.00 0.00 60 1020.5
20210919212042 68 0 0.0 2.0 0.00 0.00 0.00 62 1020.6
20210919211654 68 65 0.0 1.0 0.00 0.00 0.00 56 1020.5
20210919211629 68 64 0.0 1.0 0.00 0.00 0.00 57 1019.9
20210919211045 68 0 0.0 1.0 0.00 0.00 0.00 57 1020.4
20210919210546 69 0 0.0 1.0 0.00 0.00 0.00 57 1020.5
20210919210138 69 5 0.0 2.0 0.00 0.00 0.00 53 1019.9
20210919210103 69 0 0.0 2.0 0.00 0.00 0.00 52 1020.5
20210919205545 69 0 0.0 2.0 0.00 0.00 0.00 54 1020.5
20210919205044 69 0 0.0 2.0 0.00 0.00 0.00 56 1020.5
20210919204710 69 212 0.0 3.0 0.00 0.00 0.00 55 1019.9
20210919204620 69 328 0.0 3.0 0.00 0.00 0.00 55 1020.4
20210919204045 69 88 0.0 3.0 0.00 0.00 0.00 51 1020.4
20210919203545 70 0 0.0 1.0 0.00 0.00 0.00 58 1020.3
20210919203102 70 0 0.0 2.0 0.00 0.00 0.00 55 1020.4
20210919203059 70 76 0.0 1.0 0.00 0.00 0.00 55 1019.9
20210919202544 70 0 0.0 4.0 0.00 0.00 0.00 54 1020.4
20210919202105 70 0 0.0 4.0 0.00 0.00 0.00 54 1020.3
20210919201938 70 345 0.0 1.0 0.00 0.00 0.00 54 1020.4
20210919201554 70 84 0.0 4.0 0.00 0.00 0.00 53 1019.9
20210919201101 70 348 0.0 1.0 0.00 0.00 0.00 51 1020.4
20210919200543 70 38 0.0 1.0 0.00 0.00 0.00 52 1020.4
20210919200126 70 311 0.0 1.0 0.00 0.00 0.00 58 1019.8
20210919200059 70 0 0.0 1.0 0.00 0.00 0.00 57 1020.3
20210919195546 70 330 0.0 1.0 0.00 0.00 0.00 56 1020.4
20210919195049 70 0 0.0 3.0 0.00 0.00 0.00 54 1020.4
20210919194650 70 0 0.0 4.0 0.00 0.00 0.00 55 1020.3
20210919194617 70 350 0.0 4.0 0.00 0.00 0.00 55 1019.8
20210919194051 70 349 0.0 4.0 0.00 0.00 0.00 54 1020.3
20210919193546 70 0 0.0 5.0 0.00 0.00 0.00 54 1020.4
20210919193120 70 0 0.0 5.0 0.00 0.00 0.00 54 1020.4
20210919193100 70 315 0.0 5.0 0.00 0.00 0.00 54 1019.8
20210919192550 70 0 0.0 4.0 0.00 0.00 0.00 55 1020.4
20210919192048 70 0 0.0 4.0 0.00 0.00 0.00 55 1020.6
20210919191702 71 317 0.0 2.0 0.00 0.00 0.00 55 1020.4
20210919191628 71 315 0.0 2.0 0.00 0.00 0.00 55 1020.0
20210919191044 71 338 0.0 1.0 0.00 0.00 0.00 56 1020.4
20210919190548 70 317 0.0 2.0 0.00 0.00 0.00 55 1020.4
20210919190124 70 0 0.0 2.0 0.00 0.00 0.00 55 1020.6
20210919190114 70 319 0.0 2.0 0.00 0.00 0.00 55 1020.1
20210919185544 70 0 0.0 2.0 0.00 0.00 0.00 55 1020.6
20210919185045 70 5 0.0 6.0 0.00 0.00 0.00 56 1020.5
20210919184716 70 351 0.0 6.0 0.00 0.00 0.00 58 1020.0
20210919184554 70 352 0.0 6.0 0.00 0.00 0.00 57 1020.6
20210919184043 70 0 0.0 9.0 0.00 0.00 0.00 58 1020.5
20210919183549 70 302 0.0 9.0 0.00 0.00 0.00 57 1020.5
20210919183144 70 0 0.0 9.0 0.00 0.00 0.00 56 1020.4
20210919183120 70 94 0.0 9.0 0.00 0.00 0.00 57 1019.9
20210919182554 70 60 0.0 4.0 0.00 0.00 0.00 57 1020.4
20210919182045 70 319 0.0 4.0 0.00 0.00 0.00 57 1020.3
20210919181753 70 348 0.0 5.0 0.00 0.00 0.00 56 1020.4
20210919181622 70 348 0.0 5.0 0.00 0.00 0.00 57 1019.8
20210919181047 70 0 0.0 5.0 0.00 0.00 0.00 56 1020.5
20210919180544 70 0 0.0 2.0 0.00 0.00 0.00 58 1020.4
20210919180139 70 0 0.0 3.0 0.00 0.00 0.00 56 1020.3
20210919180118 70 111 0.0 3.0 0.00 0.00 0.00 57 1019.8
20210919175559 70 352 0.0 8.0 0.00 0.00 0.00 56 1020.4
20210919175044 71 0 0.0 8.0 0.00 0.00 0.00 56 1020.5
20210919174700 71 0 0.0 3.0 0.00 0.00 0.00 57 1020.5
20210919174559 71 85 0.0 3.0 0.00 0.00 0.00 58 1019.9
20210919174044 71 340 0.0 2.0 0.00 0.00 0.00 58 1020.5
20210919173544 71 315 0.0 7.0 0.00 0.00 0.00 59 1020.4
20210919173136 71 0 0.0 7.0 0.00 0.00 0.00 59 1020.3
20210919173102 71 339 0.0 8.0 0.00 0.00 0.00 60 1019.9
20210919172544 71 333 0.0 3.0 0.00 0.00 0.00 61 1020.5
20210919172044 71 0 0.0 3.0 0.00 0.00 0.00 61 1020.6
20210919171624 71 355 0.0 3.0 0.00 0.00 0.00 59 1020.0
20210919171615 71 11 0.0 3.0 0.00 0.00 0.00 59 1020.5
20210919171045 70 44 0.0 3.0 0.00 0.00 0.00 59 1020.6
20210919170549 70 0 0.0 5.0 0.00 0.00 0.00 60 1020.7
20210919170228 70 313 0.0 5.0 0.00 0.00 0.00 60 1020.7
20210919170135 70 20 0.0 5.0 0.00 0.00 0.00 60 1020.1
20210919165549 70 338 0.0 3.0 0.00 0.00 0.00 61 1020.6
20210919165054 70 318 0.0 3.0 0.00 0.00 0.00 62 1020.6
20210919164610 70 0 0.0 7.0 0.00 0.00 0.00 61 1020.6
20210919164545 70 305 0.0 7.0 0.00 0.00 0.00 62 1020.2
20210919164042 70 0 0.0 8.0 0.00 0.00 0.00 61 1020.8
20210919163558 70 0 0.0 8.0 0.00 0.00 0.00 62 1020.7
20210919163124 70 0 0.0 2.0 0.00 0.00 0.00 62 1020.7
20210919163038 70 56 0.0 2.0 0.00 0.00 0.00 63 1020.1
20210919162603 70 0 0.0 4.0 0.00 0.00 0.00 62 1020.8
20210919162042 70 19 0.0 4.0 0.00 0.00 0.00 64 1020.8
20210919161649 70 349 0.0 5.0 0.00 0.00 0.00 61 1020.7
20210919161556 70 304 0.0 4.0 0.00 0.00 0.00 62 1020.2
20210919161041 70 329 0.0 5.0 0.00 0.00 0.00 65 1020.7
20210919160545 70 10 0.0 2.0 0.00 0.00 0.00 64 1020.8
20210919160230 70 24 0.0 6.0 0.00 0.00 0.00 64 1020.7
20210919160130 70 11 0.0 6.0 0.00 0.00 0.00 64 1020.1
20210919155544 70 0 0.0 6.0 0.00 0.00 0.00 63 1020.7
20210919155050 70 42 0.0 5.0 0.00 0.00 0.00 66 1020.5
20210919154636 69 351 0.0 6.0 0.00 0.00 0.00 67 1020.5
20210919154556 69 309 0.0 3.0 0.00 0.00 0.00 67 1019.9
20210919154113 70 0 0.0 6.0 0.00 0.00 0.00 64 1020.4
20210919153545 70 158 0.0 3.0 0.00 0.00 0.00 65 1020.4
20210919153222 70 0 0.0 9.0 0.00 0.00 0.00 63 1020.4
20210919153041 70 323 0.0 9.0 0.00 0.00 0.00 64 1019.8
20210919152544 70 0 1.0 9.0 0.00 0.00 0.00 66 1020.3
20210919152109 70 306 0.0 2.0 0.00 0.00 0.00 68 1020.3
20210919151656 70 5 0.0 3.0 0.00 0.00 0.00 67 1020.2
20210919151530 70 47 0.0 3.0 0.00 0.00 0.00 67 1019.8
20210919151053 69 0 0.0 3.0 0.00 0.00 0.00 69 1020.3
20210919150545 69 0 0.0 2.0 0.00 0.00 0.00 70 1020.3
20210919150112 69 0 0.0 2.0 0.00 0.00 0.00 72 1020.3
20210919150034 69 291 0.0 2.0 0.00 0.00 0.00 72 1019.7
20210919145609 69 88 0.0 4.0 0.00 0.00 0.00 71 1020.4
20210919145045 69 0 0.0 4.0 0.00 0.00 0.00 73 1020.2
20210919144624 69 0 0.0 4.0 0.00 0.00 0.00 73 1020.1
20210919144515 69 331 0.0 4.0 0.00 0.00 0.00 73 1019.6
20210919144045 69 66 0.0 4.0 0.00 0.00 0.00 73 1020.1
20210919143605 68 329 0.0 8.0 0.00 0.00 0.00 73 1020.1
20210919143224 68 0 0.0 8.0 0.00 0.00 0.00 75 1020.3
20210919143020 68 95 0.0 8.0 0.00 0.00 0.00 76 1019.5
20210919142600 68 323 0.0 1.0 0.00 0.00 0.00 78 1020.2
20210919142045 68 0 0.0 1.0 0.00 0.00 0.00 79 1020.3
20210919141740 68 318 0.0 2.0 0.00 0.00 0.00 78 1020.1
20210919141525 68 81 0.0 2.0 0.00 0.00 0.00 79 1019.6
20210919141045 68 0 0.0 3.0 0.00 0.00 0.00 78 1020.0
20210919140546 67 315 0.0 3.0 0.00 0.00 0.00 79 1020.1
20210919140224 67 0 0.0 5.0 0.00 0.00 0.00 79 1020.2
20210919140007 67 59 0.0 5.0 0.00 0.00 0.00 80 1019.5
20210919135553 67 0 0.0 5.0 0.00 0.00 0.00 79 1020.0
20210919135130 67 0 0.0 2.0 0.00 0.00 0.00 80 1019.9
20210919134707 67 340 0.0 4.0 0.00 0.00 0.00 80 1019.9
20210919134504 67 5 0.0 4.0 0.00 0.00 0.00 81 1019.3
20210919134044 66 0 0.0 4.0 0.00 0.00 0.00 80 1019.9
20210919133542 66 0 0.0 5.0 0.00 0.00 0.00 81 1019.7
20210919133159 66 53 0.0 5.0 0.00 0.00 0.00 82 1019.7
20210919133001 66 355 0.0 5.0 0.00 0.00 0.00 82 1019.1
20210919132543 66 0 0.0 5.0 0.00 0.00 0.00 82 1019.7
20210919132047 66 329 0.0 4.0 0.00 0.00 0.00 83 1019.7
20210919131612 66 0 0.0 5.0 0.00 0.00 0.00 84 1019.5
20210919131052 65 0 0.0 5.0 0.00 0.00 0.00 83 1019.5
20210919130544 65 352 0.0 4.0 0.00 0.00 0.00 84 1019.6
20210919130123 65 345 0.0 4.0 0.00 0.00 0.00 84 1019.6
20210919130118 65 339 0.0 4.0 0.00 0.00 0.00 84 1019.0
20210919125544 65 5 0.0 3.0 0.00 0.00 0.00 85 1019.6
20210919125044 65 340 0.0 3.0 0.00 0.00 0.00 86 1019.5
20210919124709 65 332 0.0 2.0 0.00 0.00 0.00 86 1018.8
20210919124648 65 338 0.0 2.0 0.00 0.00 0.00 86 1019.2
20210919124049 65 0 0.0 2.0 0.00 0.00 0.00 86 1019.2
20210919123543 64 342 0.0 2.0 0.00 0.00 0.00 88 1019.2
20210919123139 64 352 0.0 2.0 0.00 0.00 0.00 87 1019.2
20210919123102 64 342 0.0 2.0 0.00 0.00 0.00 87 1018.7
20210919122545 64 334 0.0 2.0 0.00 0.00 0.00 88 1019.1
20210919122044 64 0 0.0 2.0 0.00 0.00 0.00 88 1019.1
20210919121711 64 38 0.0 2.0 0.00 0.00 0.00 88 1019.1
20210919121709 64 355 0.0 2.0 0.00 0.00 0.00 89 1018.4
20210919121058 64 0 0.0 3.0 0.00 0.00 0.00 89 1019.0
20210919120606 63 0 0.0 8.0 0.00 0.00 0.00 89 1019.0
20210919120134 63 341 0.0 8.0 0.00 0.00 0.00 90 1018.2
20210919120113 63 340 0.0 8.0 0.00 0.00 0.00 89 1018.8
20210919115555 63 293 0.0 1.0 0.00 0.00 0.00 90 1018.8
20210919115109 63 306 0.0 1.0 0.00 0.00 0.00 90 1018.7
20210919114650 63 74 0.0 4.0 0.00 0.00 0.00 91 1018.1
20210919114627 63 0 0.0 4.0 0.00 0.00 0.00 91 1018.6
20210919114049 63 334 0.0 4.0 0.00 0.00 0.00 92 1018.5
20210919113543 63 352 0.0 1.0 0.00 0.00 0.00 92 1018.6
20210919113115 62 351 0.0 11.0 0.00 0.00 0.00 93 1017.8
20210919113111 62 0 0.0 11.0 0.00 0.00 0.00 92 1018.4
20210919112542 62 0 1.0 11.0 0.00 0.00 0.00 93 1018.3
20210919112046 62 0 0.0 4.0 0.00 0.00 0.00 94 1018.3
20210919111719 62 0 0.0 4.0 0.00 0.00 0.00 94 1018.2
20210919111553 62 60 0.0 4.0 0.00 0.00 0.00 94 1017.6
20210919111057 62 0 0.0 5.0 0.00 0.00 0.00 94 1018.1
20210919110602 62 0 0.0 6.0 0.00 0.00 0.00 93 1018.1
20210919110108 62 0 0.0 6.0 0.00 0.00 0.00 93 1018.0
20210919110054 62 342 0.0 6.0 0.00 0.00 0.00 93 1017.4
20210919105546 62 0 0.0 2.0 0.00 0.00 0.00 93 1018.0
20210919105046 62 0 0.0 2.0 0.00 0.00 0.00 92 1017.8
20210919104632 62 0 0.0 2.0 0.00 0.00 0.00 92 1017.7
20210919104554 62 360 0.0 2.0 0.00 0.00 0.00 92 1017.2
20210919104049 62 0 0.0 4.0 0.00 0.00 0.00 91 1017.5
20210919103607 62 0 0.0 4.0 0.00 0.00 0.00 91 1017.6
20210919103104 63 360 0.0 3.0 0.00 0.00 0.00 90 1017.6
20210919103102 63 360 0.0 4.0 0.00 0.00 0.00 91 1017.0
20210919102546 63 0 0.0 6.0 0.00 0.00 0.00 90 1017.6
20210919102043 63 360 0.0 6.0 0.00 0.00 0.00 90 1017.6
20210919101622 63 360 0.0 2.0 0.00 0.00 0.00 92 1017.0
20210919101620 63 0 0.0 2.0 0.00 0.00 0.00 91 1017.6
20210919101045 64 360 0.0 2.0 0.00 0.00 0.00 91 1017.5
20210919100545 64 0 0.0 2.0 0.00 0.00 0.00 92 1017.6
20210919100050 64 0 0.0 2.0 0.00 0.00 0.00 93 1017.5
20210919100035 64 360 0.0 2.0 0.00 0.00 0.00 94 1016.9
20210919095607 64 360 0.0 2.0 0.00 0.00 0.00 93 1017.4
20210919095045 65 0 0.0 1.0 0.00 0.00 0.00 93 1017.3
20210919094609 65 0 0.0 2.0 0.00 0.00 0.00 93 1017.1
20210919094550 65 360 0.0 1.0 0.00 0.00 0.00 94 1016.5
20210919094043 65 0 0.0 2.0 0.00 0.00 0.00 93 1017.1
20210919093611 65 302 0.0 2.0 0.00 0.00 0.00 93 1016.8
20210919093139 65 0 0.0 2.0 0.00 0.00 0.00 94 1017.0
20210919093034 65 316 0.0 2.0 0.00 0.00 0.00 95 1016.2
20210919092606 66 325 0.0 2.0 0.00 0.00 0.00 96 1016.8
20210919092047 66 0 0.0 2.0 0.00 0.00 0.00 96 1016.8
20210919091630 66 341 0.0 1.0 0.00 0.00 0.00 96 1016.8
20210919091534 66 329 0.0 1.0 0.00 0.00 0.00 97 1016.1
20210919091045 66 0 0.0 1.0 0.00 0.00 0.00 96 1016.9
20210919090600 66 0 0.0 3.0 0.00 0.00 0.00 97 1016.8
20210919090113 66 9 0.0 4.0 0.00 0.00 0.00 97 1016.8
20210919090020 66 24 0.0 4.0 0.00 0.00 0.00 97 1016.0
20210919085542 66 346 0.0 4.0 0.00 0.00 0.00 98 1016.7
20210919085045 66 0 0.0 2.0 0.00 0.00 0.00 98 1016.5
20210919084632 66 0 0.0 1.0 0.00 0.00 0.00 98 1016.6
20210919084518 66 343 0.0 1.0 0.00 0.00 0.00 98 1015.7
20210919084057 66 0 0.0 1.0 0.00 0.00 0.00 98 1016.5
20210919083609 66 0 0.0 1.0 0.00 0.00 0.00 98 1016.4
20210919083057 66 348 0.0 1.0 0.00 0.00 0.00 98 1016.4
20210919083017 66 348 0.0 1.0 0.00 0.00 0.00 98 1015.5
20210919082554 66 0 0.0 1.0 0.00 0.00 0.00 98 1016.3
20210919082107 66 0 0.0 1.0 0.00 0.00 0.00 98 1016.2
20210919081605 66 0 0.0 1.0 0.00 0.00 0.00 98 1016.1
20210919081519 66 309 0.0 1.0 0.00 0.00 0.00 99 1015.3
20210919081044 66 0 0.0 1.0 0.00 0.00 0.00 98 1016.1
20210919080543 66 0 0.0 1.0 0.00 0.00 0.00 99 1016.0
20210919080127 66 351 0.0 1.0 0.00 0.00 0.00 99 1016.0
20210919080013 66 351 0.0 1.0 0.00 0.00 0.00 99 1015.2
20210919075547 66 360 0.0 1.0 0.00 0.00 0.00 99 1016.0
20210919075051 66 0 0.0 1.0 0.00 0.00 0.00 99 1015.9
20210919074633 66 327 0.0 1.0 0.00 0.00 0.00 98 1015.9
20210919074546 66 360 0.0 1.0 0.00 0.00 0.00 99 1015.1
20210919074044 66 0 0.0 1.0 0.00 0.00 0.00 98 1015.9
20210919073543 66 0 0.0 1.0 0.00 0.00 0.00 98 1015.9
20210919073146 66 0 0.0 1.0 0.00 0.00 0.00 98 1015.7
20210919073020 66 329 0.0 1.0 0.00 0.00 0.00 99 1015.1
20210919072544 66 0 0.0 1.0 0.00 0.00 0.00 99 1015.9
20210919072050 66 0 0.0 1.0 0.00 0.00 0.00 98 1015.7
20210919071640 65 343 0.0 1.0 0.00 0.00 0.00 98 1015.8
20210919071530 65 333 0.0 1.0 0.00 0.00 0.00 98 1015.1
20210919071049 65 0 0.0 1.0 0.00 0.00 0.00 98 1015.8
20210919070555 66 0 0.0 1.0 0.00 0.00 0.00 98 1015.7
20210919070055 66 0 0.0 1.0 0.00 0.00 0.00 98 1015.8
20210919070009 66 296 0.0 1.0 0.00 0.00 0.00 98 1015.0
20210919065545 66 0 0.0 1.0 0.00 0.00 0.00 97 1015.8
20210919065058 66 0 0.0 1.0 0.00 0.00 0.00 97 1015.8
20210919064636 66 0 0.0 1.0 0.00 0.00 0.00 98 1015.8
20210919064516 66 331 0.0 1.0 0.00 0.00 0.00 98 1015.0
20210919064042 66 0 0.0 1.0 0.00 0.00 0.00 98 1015.8
20210919063543 66 0 0.0 1.0 0.00 0.00 0.00 98 1015.8
20210919063110 66 0 0.0 1.0 0.00 0.00 0.00 98 1015.9
20210919063012 66 360 0.0 0.0 0.00 0.00 0.00 99 1015.2
20210919062544 66 0 0.0 1.0 0.00 0.00 0.00 98 1015.9
20210919062044 66 0 0.0 1.0 0.00 0.00 0.00 98 1015.9
20210919061640 66 0 0.0 1.0 0.00 0.00 0.00 98 1016.0
20210919061513 66 360 0.0 1.0 0.00 0.00 0.00 99 1015.2
20210919061049 66 0 0.0 0.0 0.00 0.00 0.00 98 1016.0
20210919060553 66 0 0.0 0.0 0.00 0.00 0.00 98 1015.9
20210919060134 66 0 0.0 1.0 0.00 0.00 0.00 98 1016.0
20210919060006 66 360 0.0 1.0 0.00 0.00 0.00 98 1015.2
20210919055603 66 0 0.0 1.0 0.00 0.00 0.00 98 1015.9
20210919055050 66 0 0.0 1.0 0.00 0.00 0.00 98 1016.1
20210919054914 66 0 0.0 0.0 0.00 0.00 0.00 98 1016.1
20210919054504 66 360 0.0 0.0 0.00 0.00 0.00 98 1015.4
20210919054043 66 0 0.0 1.0 0.00 0.00 0.00 98 1016.1
20210919053608 67 0 0.0 1.0 0.00 0.00 0.00 98 1016.1
20210919053106 67 0 0.0 1.0 0.00 0.00 0.00 98 1016.2
20210919053003 67 360 0.0 0.0 0.00 0.00 0.00 98 1015.4
20210919052606 67 0 0.0 1.0 0.00 0.00 0.00 98 1016.2
20210919052045 67 0 0.0 1.0 0.00 0.00 0.00 98 1016.3
20210919051617 67 0 0.0 1.0 0.00 0.00 0.00 98 1016.4
20210919051512 66 360 0.0 1.0 0.00 0.00 0.00 98 1015.6
20210919051049 67 0 0.0 1.0 0.00 0.00 0.00 98 1016.4
20210919050558 66 360 0.0 1.0 0.00 0.00 0.00 98 1016.2
20210919050119 67 0 0.0 1.0 0.00 0.00 0.00 97 1016.3
20210919050058 67 360 0.0 1.0 0.00 0.00 0.00 98 1015.5
20210919045552 67 0 0.0 1.0 0.00 0.00 0.00 98 1016.3
20210919045056 67 0 0.0 1.0 0.00 0.00 0.00 98 1016.2
20210919044816 67 351 0.0 1.0 0.00 0.00 0.00 98 1015.4
20210919044617 67 351 0.0 1.0 0.00 0.00 0.00 98 1016.1
20210919044043 67 0 0.0 0.0 0.00 0.00 0.00 98 1016.2
20210919043544 67 0 0.0 0.0 0.00 0.00 0.00 98 1015.9
20210919043146 67 0 0.0 0.0 0.00 0.00 0.00 98 1015.8
20210919043143 67 271 0.0 0.0 0.00 0.00 0.00 98 1014.9
20210919042552 67 0 0.0 0.0 0.00 0.00 0.00 98 1015.8
20210919042050 67 0 0.0 0.0 0.00 0.00 0.00 98 1015.7
20210919041713 67 270 0.0 0.0 0.00 0.00 0.00 99 1014.9
20210919041639 67 0 0.0 0.0 0.00 0.00 0.00 98 1015.7
20210919041044 67 0 0.0 0.0 0.00 0.00 0.00 98 1015.7
20210919040543 67 0 0.0 0.0 0.00 0.00 0.00 99 1015.8
20210919040219 67 0 0.0 0.0 0.00 0.00 0.00 99 1015.6
20210919040115 67 267 0.0 0.0 0.00 0.00 0.00 99 1014.9
20210919035556 67 0 0.0 1.0 0.00 0.00 0.00 99 1015.7
20210919035045 67 0 0.0 1.0 0.00 0.00 0.00 99 1015.6
20210919034707 67 271 0.0 1.0 0.00 0.00 0.00 100 1014.7
20210919034611 67 0 0.0 1.0 0.00 0.00 0.00 99 1015.6
20210919034045 67 0 0.0 1.0 0.00 0.00 0.00 99 1015.7
20210919033546 67 230 0.0 1.0 0.00 0.00 0.00 99 1015.7
20210919033205 66 0 0.0 1.0 0.00 0.00 0.00 99 1015.7
20210919033203 66 232 0.0 1.0 0.00 0.00 0.00 99 1014.7
20210919032545 66 0 0.0 2.0 0.00 0.00 0.00 99 1015.6
20210919032106 65 360 0.0 2.0 0.00 0.00 0.00 98 1015.9
20210919031717 65 43 0.0 1.0 0.00 0.00 0.00 98 1015.0
20210919031702 65 0 0.0 0.0 0.00 0.00 0.00 98 1015.9
20210919031051 65 0 0.0 0.0 0.00 0.00 0.00 98 1015.8
20210919030544 65 0 0.0 0.0 0.00 0.00 0.00 98 1015.8
20210919030237 65 0 0.0 0.0 0.00 0.00 0.00 98 1015.9
20210919030138 65 360 0.0 0.0 0.00 0.00 0.00 98 1015.0
20210919025550 65 0 0.0 0.0 0.00 0.00 0.00 97 1015.9
20210919025102 65 0 0.0 0.0 0.00 0.00 0.00 97 1015.7
20210919024751 65 0 0.0 0.0 0.00 0.00 0.00 97 1015.6
20210919024627 65 360 0.0 0.0 0.00 0.00 0.00 98 1014.7
20210919024047 65 0 0.0 0.0 0.00 0.00 0.00 97 1015.7